Time;durP1;ratioP1;P1;durP2;ratioP2;P2;SDS_P1;SDS_P2;PMS_P1;PMS_P2;Temp;Humidity;BMP_temperature;BMP_pressure;BME280_temperature;BME280_humidity;BME280_pressure;Samples;Min_cycle;Max_cycle;Signal;HPM_P1;HPM_P2
2021/11/13 00:02:03;;;;;;;4.93;1.73;;;;;;;;;;5036992;28;20469;-59
2021/11/13 00:04:28;;;;;;;9.52;3.45;;;;;;;;;;5039506;28;20248;-58
2021/11/13 00:06:54;;;;;;;5.32;2.20;;;;;;;;;;5038062;28;20108;-59
2021/11/13 00:09:19;;;;;;;8.85;3.88;;;;;;;;;;5036703;28;20043;-59
2021/11/13 00:11:44;;;;;;;4.38;2.00;;;;;;;;;;5036182;28;20017;-60
2021/11/13 00:14:16;;;;;;;5.43;2.17;;;;;;;;;;5034837;28;20471;-59
2021/11/13 00:16:42;;;;;;;8.02;3.28;;;;;;;;;;5038970;28;20021;-59
2021/11/13 00:19:07;;;;;;;4.90;2.65;;;;;;;;;;5037828;28;20136;-60
2021/11/13 00:21:32;;;;;;;5.50;3.00;;;;;;;;;;5035735;28;20033;-60
2021/11/13 00:23:57;;;;;;;4.95;2.13;;;;;;;;;;5041478;28;20064;-61
2021/11/13 00:26:23;;;;;;;3.95;1.80;;;;;;;;;;5038814;28;20103;-60
2021/11/13 00:28:48;;;;;;;2.30;1.60;;;;;;;;;;5039777;28;20024;-60
2021/11/13 00:31:13;;;;;;;10.40;2.88;;;;;;;;;;5038698;28;21073;-60
2021/11/13 00:33:39;;;;;;;6.90;2.53;;;;;;;;;;5040645;28;20033;-60
2021/11/13 00:36:04;;;;;;;3.75;1.88;;;;;;;;;;5036455;28;20774;-60
2021/11/13 00:38:29;;;;;;;12.75;3.33;;;;;;;;;;5039491;28;20528;-60
2021/11/13 00:40:55;;;;;;;4.72;2.10;;;;;;;;;;5038380;28;20428;-60
2021/11/13 00:43:21;;;;;;;6.30;2.45;;;;;;;;;;5035977;28;20060;-60
2021/11/13 00:45:46;;;;;;;11.60;3.35;;;;;;;;;;5037741;28;20053;-60
2021/11/13 00:48:12;;;;;;;2.30;1.40;;;;;;;;;;5037073;28;20045;-60
2021/11/13 00:50:37;;;;;;;3.63;1.65;;;;;;;;;;5036687;28;20058;-61
2021/11/13 00:53:03;;;;;;;2.13;1.05;;;;;;;;;;5041643;28;20045;-60
2021/11/13 00:55:28;;;;;;;4.63;1.88;;;;;;;;;;5036140;28;20105;-60
2021/11/13 00:57:53;;;;;;;6.97;1.50;;;;;;;;;;5040165;28;20025;-60
2021/11/13 01:00:19;;;;;;;2.42;0.98;;;;;;;;;;5036212;28;20526;-60
2021/11/13 01:02:45;;;;;;;6.32;1.02;;;;;;;;;;5037272;28;20025;-60
2021/11/13 01:05:10;;;;;;;8.38;2.10;;;;;;;;;;5038743;28;20032;-60
2021/11/13 01:07:36;;;;;;;5.95;1.98;;;;;;;;;;5039069;28;20544;-60
2021/11/13 01:10:03;;;;;;;3.35;1.40;;;;;;;;;;5037124;28;20036;-61
2021/11/13 01:12:28;;;;;;;3.28;1.85;;;;;;;;;;5039768;28;20028;-60
2021/11/13 01:14:54;;;;;;;10.25;4.63;;;;;;;;;;5039417;28;20033;-60
2021/11/13 01:17:19;;;;;;;4.75;2.38;;;;;;;;;;5038419;28;20071;-60
2021/11/13 01:19:46;;;;;;;2.92;1.40;;;;;;;;;;5039133;28;20536;-61
2021/11/13 01:22:11;;;;;;;1.75;1.27;;;;;;;;;;5043627;28;20109;-60
2021/11/13 01:24:37;;;;;;;19.30;3.65;;;;;;;;;;5037765;28;20108;-60
2021/11/13 01:27:02;;;;;;;12.65;4.20;;;;;;;;;;5036130;28;20040;-59
2021/11/13 01:29:28;;;;;;;8.80;3.75;;;;;;;;;;5038316;28;20018;-60
2021/11/13 01:31:53;;;;;;;9.20;4.13;;;;;;;;;;5035995;28;20021;-60
2021/11/13 01:34:18;;;;;;;8.60;3.17;;;;;;;;;;5037942;28;20246;-60
2021/11/13 01:36:44;;;;;;;6.55;2.90;;;;;;;;;;5034733;28;20369;-60
2021/11/13 01:39:09;;;;;;;5.10;2.20;;;;;;;;;;5036063;28;20511;-60
2021/11/13 01:41:35;;;;;;;9.02;2.13;;;;;;;;;;5036055;28;20116;-60
2021/11/13 01:44:00;;;;;;;6.65;2.47;;;;;;;;;;5036909;28;20504;-60
2021/11/13 01:46:26;;;;;;;3.53;2.38;;;;;;;;;;5038241;28;20044;-60
2021/11/13 01:48:51;;;;;;;5.88;3.00;;;;;;;;;;5035841;28;20026;-60
2021/11/13 01:51:18;;;;;;;4.70;2.20;;;;;;;;;;5037927;28;20127;-61
2021/11/13 01:53:44;;;;;;;4.70;2.00;;;;;;;;;;5036560;28;20013;-61
2021/11/13 01:56:16;;;;;;;5.07;3.10;;;;;;;;;;5037088;28;20087;-61
2021/11/13 01:58:41;;;;;;;12.07;2.45;;;;;;;;;;5034444;28;20029;-61
2021/11/13 02:01:06;;;;;;;4.93;1.67;;;;;;;;;;5038689;28;20071;-61
2021/11/13 02:03:32;;;;;;;10.32;2.95;;;;;;;;;;5036292;28;20029;-61
2021/11/13 02:05:57;;;;;;;8.30;2.85;;;;;;;;;;5034947;28;20036;-61
2021/11/13 02:08:22;;;;;;;4.90;2.05;;;;;;;;;;5038298;28;20036;-61
2021/11/13 02:10:48;;;;;;;4.00;2.35;;;;;;;;;;5037729;28;20418;-60
2021/11/13 02:13:13;;;;;;;10.50;1.95;;;;;;;;;;5036497;28;20029;-60
2021/11/13 02:15:38;;;;;;;2.15;1.13;;;;;;;;;;5036041;28;20120;-60
2021/11/13 02:18:04;;;;;;;5.30;2.75;;;;;;;;;;5034923;28;20029;-60
2021/11/13 02:20:30;;;;;;;7.22;3.25;;;;;;;;;;5036261;28;20495;-60
2021/11/13 02:22:58;;;;;;;5.65;2.88;;;;;;;;;;5037203;28;20049;-60
2021/11/13 02:25:24;;;;;;;6.97;3.08;;;;;;;;;;5034298;28;20025;-60
2021/11/13 02:27:50;;;;;;;10.32;4.18;;;;;;;;;;5033022;28;20028;-61
2021/11/13 02:30:16;;;;;;;7.53;2.55;;;;;;;;;;5039120;28;20016;-60
2021/11/13 02:32:42;;;;;;;8.20;2.60;;;;;;;;;;5030622;28;20366;-60
2021/11/13 02:35:09;;;;;;;9.40;3.38;;;;;;;;;;5032898;28;20755;-60
2021/11/13 02:37:35;;;;;;;10.00;3.33;;;;;;;;;;5037875;28;20036;-60
2021/11/13 02:40:00;;;;;;;3.80;1.85;;;;;;;;;;5034807;28;20027;-60
2021/11/13 02:42:26;;;;;;;10.15;2.92;;;;;;;;;;5037099;28;20121;-61
2021/11/13 02:44:51;;;;;;;5.30;1.52;;;;;;;;;;5031346;28;20021;-60
2021/11/13 02:47:18;;;;;;;15.52;5.05;;;;;;;;;;5035317;28;20032;-60
2021/11/13 02:49:44;;;;;;;7.80;1.95;;;;;;;;;;5034629;28;20083;-60
2021/11/13 02:52:09;;;;;;;4.70;1.48;;;;;;;;;;5033019;28;20028;-61
2021/11/13 02:54:41;;;;;;;1.33;0.90;;;;;;;;;;5035577;28;20140;-60
2021/11/13 02:57:06;;;;;;;9.18;3.85;;;;;;;;;;5036648;28;20047;-60
2021/11/13 02:59:32;;;;;;;6.22;3.30;;;;;;;;;;5034213;28;20428;-60
2021/11/13 03:01:57;;;;;;;4.43;2.35;;;;;;;;;;5037069;28;20017;-60
2021/11/13 03:04:22;;;;;;;3.08;1.58;;;;;;;;;;5037166;28;20025;-60
2021/11/13 03:06:48;;;;;;;14.27;2.70;;;;;;;;;;5032980;28;20100;-60
2021/11/13 03:09:13;;;;;;;3.80;1.70;;;;;;;;;;5034182;28;20033;-60
2021/11/13 03:11:38;;;;;;;3.67;1.70;;;;;;;;;;5035175;28;20029;-60
2021/11/13 03:14:04;;;;;;;3.28;2.20;;;;;;;;;;5037641;28;20109;-60
2021/11/13 03:16:29;;;;;;;6.55;2.67;;;;;;;;;;5034125;28;20029;-60
2021/11/13 03:18:54;;;;;;;3.75;2.25;;;;;;;;;;5035846;28;20386;-60
2021/11/13 03:21:20;;;;;;;6.90;2.15;;;;;;;;;;5034673;28;20025;-60
2021/11/13 03:23:46;;;;;;;4.50;2.30;;;;;;;;;;5036794;28;20456;-60
2021/11/13 03:26:16;;;;;;;5.68;1.80;;;;;;;;;;5037032;28;20101;-60
2021/11/13 03:28:44;;;;;;;13.88;3.13;;;;;;;;;;5036422;28;20032;-60
2021/11/13 03:31:09;;;;;;;2.90;1.30;;;;;;;;;;5040903;28;20029;-59
2021/11/13 03:33:36;;;;;;;8.63;2.05;;;;;;;;;;5044214;28;20028;-60
2021/11/13 03:36:02;;;;;;;4.63;2.13;;;;;;;;;;5039085;28;20013;-60
2021/11/13 03:38:28;;;;;;;1.67;0.88;;;;;;;;;;5038557;28;20031;-59
2021/11/13 03:40:53;;;;;;;3.72;1.95;;;;;;;;;;5040652;28;20251;-60
2021/11/13 03:43:18;;;;;;;2.65;1.65;;;;;;;;;;5040362;28;20473;-59
2021/11/13 03:45:47;;;;;;;2.55;1.98;;;;;;;;;;5034916;28;20625;-60
2021/11/13 03:48:13;;;;;;;6.70;4.10;;;;;;;;;;5037589;28;20516;-59
2021/11/13 03:50:38;;;;;;;7.35;1.17;;;;;;;;;;5037809;28;20040;-61
2021/11/13 03:53:07;;;;;;;1.42;0.90;;;;;;;;;;5042905;28;20703;-59
2021/11/13 03:55:33;;;;;;;3.17;1.15;;;;;;;;;;5041171;28;20158;-59
2021/11/13 03:57:58;;;;;;;6.28;2.35;;;;;;;;;;5038036;28;20029;-61
2021/11/13 04:00:25;;;;;;;5.18;2.50;;;;;;;;;;5037193;28;20025;-61
2021/11/13 04:02:50;;;;;;;2.63;1.17;;;;;;;;;;5038277;28;20104;-61
2021/11/13 04:05:16;;;;;;;5.82;1.77;;;;;;;;;;5037765;28;20112;-61
2021/11/13 04:07:41;;;;;;;3.72;1.50;;;;;;;;;;5040146;28;20516;-60
2021/11/13 04:10:07;;;;;;;5.90;1.48;;;;;;;;;;5039347;28;20554;-60
2021/11/13 04:12:33;;;;;;;3.33;2.00;;;;;;;;;;5037793;28;20072;-60
2021/11/13 04:14:59;;;;;;;5.03;2.33;;;;;;;;;;5036984;28;20659;-60
2021/11/13 04:17:24;;;;;;;5.40;2.53;;;;;;;;;;5038258;28;20029;-60
2021/11/13 04:19:50;;;;;;;14.20;5.97;;;;;;;;;;5037951;28;20041;-60
2021/11/13 04:22:15;;;;;;;9.82;3.40;;;;;;;;;;5041884;28;20086;-60
2021/11/13 04:24:40;;;;;;;6.72;2.67;;;;;;;;;;5039860;28;20075;-60
2021/11/13 04:27:06;;;;;;;6.50;4.07;;;;;;;;;;5036856;28;20475;-60
2021/11/13 04:29:31;;;;;;;11.82;4.40;;;;;;;;;;5040668;28;20508;-60
2021/11/13 04:31:56;;;;;;;14.18;5.57;;;;;;;;;;5036296;28;20449;-61
2021/11/13 04:34:24;;;;;;;6.00;2.05;;;;;;;;;;5038892;28;20029;-61
2021/11/13 04:36:52;;;;;;;7.00;4.28;;;;;;;;;;5036590;28;20094;-60
2021/11/13 04:39:18;;;;;;;15.95;6.38;;;;;;;;;;5040943;28;20591;-61
2021/11/13 04:41:43;;;;;;;3.05;1.95;;;;;;;;;;5041054;28;20025;-61
2021/11/13 04:44:09;;;;;;;6.70;3.25;;;;;;;;;;5037045;28;20055;-60
2021/11/13 04:46:34;;;;;;;7.07;3.67;;;;;;;;;;5039675;28;20040;-60
2021/11/13 04:48:59;;;;;;;5.93;3.50;;;;;;;;;;5036392;28;20124;-61
2021/11/13 04:51:25;;;;;;;7.35;3.42;;;;;;;;;;5035793;28;20041;-60
2021/11/13 04:53:50;;;;;;;4.90;2.85;;;;;;;;;;5036223;28;20440;-60
2021/11/13 04:56:16;;;;;;;8.70;3.92;;;;;;;;;;5039743;28;20071;-60
2021/11/13 04:58:42;;;;;;;23.13;9.05;;;;;;;;;;5038854;28;20025;-60
2021/11/13 05:01:07;;;;;;;8.80;4.07;;;;;;;;;;5037882;28;20813;-60
2021/11/13 05:03:33;;;;;;;13.23;6.07;;;;;;;;;;5037783;28;20036;-59
2021/11/13 05:05:58;;;;;;;6.80;3.15;;;;;;;;;;5042060;28;20473;-60
2021/11/13 05:08:24;;;;;;;13.07;4.72;;;;;;;;;;5039596;28;20052;-60
2021/11/13 05:10:50;;;;;;;8.80;4.82;;;;;;;;;;5037696;28;20029;-60
2021/11/13 05:13:16;;;;;;;3.88;2.05;;;;;;;;;;5038673;28;20574;-60
2021/11/13 05:15:42;;;;;;;4.20;2.72;;;;;;;;;;5042127;28;20179;-60
2021/11/13 05:18:07;;;;;;;4.13;1.83;;;;;;;;;;5032979;28;20252;-61
2021/11/13 05:20:33;;;;;;;4.85;3.10;;;;;;;;;;5036670;28;20040;-61
2021/11/13 05:22:58;;;;;;;5.13;2.85;;;;;;;;;;5037092;28;20020;-59
2021/11/13 05:25:23;;;;;;;6.05;3.45;;;;;;;;;;5034624;28;20064;-60
2021/11/13 05:27:49;;;;;;;12.32;4.78;;;;;;;;;;5036689;28;20263;-60
2021/11/13 05:30:15;;;;;;;17.77;3.70;;;;;;;;;;5037670;28;20546;-60
2021/11/13 05:32:41;;;;;;;8.57;2.88;;;;;;;;;;5037279;28;20064;-60
2021/11/13 05:35:07;;;;;;;6.53;4.45;;;;;;;;;;5036216;28;20503;-60
2021/11/13 05:37:32;;;;;;;8.23;3.45;;;;;;;;;;5038526;28;20020;-61
2021/11/13 05:39:58;;;;;;;3.92;2.50;;;;;;;;;;5038315;28;20134;-61
2021/11/13 05:42:23;;;;;;;14.00;6.85;;;;;;;;;;5036349;28;20032;-61
2021/11/13 05:44:49;;;;;;;11.90;4.78;;;;;;;;;;5039181;28;20028;-59
2021/11/13 05:47:14;;;;;;;7.80;4.00;;;;;;;;;;5037663;28;20040;-59
2021/11/13 05:49:40;;;;;;;12.75;5.05;;;;;;;;;;5036778;28;20053;-60
2021/11/13 05:52:05;;;;;;;16.83;5.95;;;;;;;;;;5036133;28;20492;-60
2021/11/13 05:54:31;;;;;;;17.83;3.55;;;;;;;;;;5036328;28;20025;-60
2021/11/13 05:56:56;;;;;;;5.68;1.75;;;;;;;;;;5036195;28;20370;-60
2021/11/13 05:59:22;;;;;;;4.15;2.40;;;;;;;;;;5034560;28;20033;-60
2021/11/13 06:01:47;;;;;;;3.90;1.35;;;;;;;;;;5034152;28;20014;-60
2021/11/13 06:04:12;;;;;;;13.95;4.75;;;;;;;;;;5036378;28;20018;-60
2021/11/13 06:06:38;;;;;;;8.40;4.95;;;;;;;;;;5035027;28;20039;-62
2021/11/13 06:09:04;;;;;;;9.70;3.80;;;;;;;;;;5037100;28;20031;-61
2021/11/13 06:11:29;;;;;;;6.88;3.22;;;;;;;;;;5037109;28;20017;-61
2021/11/13 06:13:54;;;;;;;7.97;3.95;;;;;;;;;;5034814;28;20129;-61
2021/11/13 06:16:20;;;;;;;5.95;2.95;;;;;;;;;;5036685;28;20045;-62
2021/11/13 06:18:45;;;;;;;18.08;5.78;;;;;;;;;;5036851;28;20104;-61
2021/11/13 06:21:10;;;;;;;6.20;2.90;;;;;;;;;;5036209;28;20124;-61
2021/11/13 06:23:37;;;;;;;18.45;4.90;;;;;;;;;;5036239;28;20477;-61
2021/11/13 06:26:03;;;;;;;3.85;1.95;;;;;;;;;;5033820;28;20387;-58
2021/11/13 06:28:29;;;;;;;14.25;5.03;;;;;;;;;;5034623;28;20028;-59
2021/11/13 06:30:54;;;;;;;12.02;4.68;;;;;;;;;;5036354;28;20520;-61
2021/11/13 06:33:20;;;;;;;2.58;1.75;;;;;;;;;;5037829;28;20036;-61
2021/11/13 06:35:45;;;;;;;5.68;2.92;;;;;;;;;;5038565;28;20607;-61
2021/11/13 06:38:10;;;;;;;9.93;2.67;;;;;;;;;;5032053;28;20021;-61
2021/11/13 06:40:36;;;;;;;6.20;3.35;;;;;;;;;;5036376;28;20047;-61
2021/11/13 06:43:01;;;;;;;5.88;3.33;;;;;;;;;;5034243;28;20023;-61
2021/11/13 06:45:27;;;;;;;5.82;2.75;;;;;;;;;;5034593;28;20161;-61
2021/11/13 06:47:52;;;;;;;12.23;4.97;;;;;;;;;;5033487;28;20028;-61
2021/11/13 06:50:18;;;;;;;10.88;3.78;;;;;;;;;;5037738;28;20142;-61
2021/11/13 06:52:43;;;;;;;9.07;5.00;;;;;;;;;;5034835;28;20018;-59
2021/11/13 06:55:09;;;;;;;15.52;5.15;;;;;;;;;;5034628;28;20018;-61
2021/11/13 06:57:34;;;;;;;8.50;4.95;;;;;;;;;;5037160;28;20534;-60
2021/11/13 07:00:00;;;;;;;8.05;3.40;;;;;;;;;;5035923;28;20021;-59
2021/11/13 07:02:25;;;;;;;5.00;3.25;;;;;;;;;;5034972;28;20027;-59
2021/11/13 07:04:53;;;;;;;11.10;3.40;;;;;;;;;;5042684;28;20037;-59
2021/11/13 07:07:18;;;;;;;12.18;2.83;;;;;;;;;;5039901;28;20020;-59
2021/11/13 07:09:43;;;;;;;4.75;2.75;;;;;;;;;;5040058;28;20021;-59
2021/11/13 07:12:09;;;;;;;3.78;2.63;;;;;;;;;;5039400;28;20107;-59
2021/11/13 07:14:34;;;;;;;3.90;1.20;;;;;;;;;;5039675;28;20017;-59
2021/11/13 07:17:00;;;;;;;3.58;2.35;;;;;;;;;;5037778;28;20040;-59
2021/11/13 07:19:25;;;;;;;8.10;2.75;;;;;;;;;;5038306;28;20439;-59
2021/11/13 07:21:50;;;;;;;4.32;1.38;;;;;;;;;;5041013;28;20017;-59
2021/11/13 07:24:16;;;;;;;5.25;4.00;;;;;;;;;;5036773;28;20029;-59
2021/11/13 07:26:41;;;;;;;7.63;3.97;;;;;;;;;;5039389;28;20520;-59
2021/11/13 07:29:08;;;;;;;7.25;3.17;;;;;;;;;;5039358;28;20469;-59
2021/11/13 07:31:34;;;;;;;21.00;4.93;;;;;;;;;;5039115;28;20181;-60
2021/11/13 07:33:59;;;;;;;6.30;2.55;;;;;;;;;;5036019;28;20285;-59
2021/11/13 07:36:25;;;;;;;7.32;3.55;;;;;;;;;;5039475;28;20024;-59
2021/11/13 07:38:50;;;;;;;5.55;4.57;;;;;;;;;;5037401;28;20082;-58
2021/11/13 07:41:18;;;;;;;7.38;5.43;;;;;;;;;;5038144;28;20029;-59
2021/11/13 07:43:43;;;;;;;12.85;5.72;;;;;;;;;;5038728;28;20028;-59
2021/11/13 07:46:09;;;;;;;8.45;5.55;;;;;;;;;;5038927;28;20680;-59
2021/11/13 07:48:34;;;;;;;14.63;5.20;;;;;;;;;;5039101;28;20425;-59
2021/11/13 07:51:00;;;;;;;11.07;5.38;;;;;;;;;;5038546;28;20125;-59
2021/11/13 07:53:25;;;;;;;13.82;5.90;;;;;;;;;;5037450;28;20154;-59
2021/11/13 07:55:51;;;;;;;9.63;6.25;;;;;;;;;;5036438;28;20020;-59
2021/11/13 07:58:17;;;;;;;7.20;5.20;;;;;;;;;;5042998;28;20049;-59
2021/11/13 08:00:44;;;;;;;10.80;5.93;;;;;;;;;;5038680;28;20063;-59
2021/11/13 08:03:09;;;;;;;9.10;5.07;;;;;;;;;;5036908;28;20028;-59
2021/11/13 08:05:34;;;;;;;11.50;7.72;;;;;;;;;;5039064;28;20018;-59
2021/11/13 08:08:00;;;;;;;13.60;7.72;;;;;;;;;;5039298;28;20118;-59
2021/11/13 08:10:25;;;;;;;13.13;8.55;;;;;;;;;;5038304;28;20423;-59
2021/11/13 08:12:51;;;;;;;46.95;41.10;;;;;;;;;;5037175;28;20541;-59
2021/11/13 08:15:17;;;;;;;27.05;19.63;;;;;;;;;;5038385;28;20021;-59
2021/11/13 08:17:43;;;;;;;15.13;8.35;;;;;;;;;;5039455;28;20079;-59
2021/11/13 08:20:10;;;;;;;14.50;6.38;;;;;;;;;;5039410;28;20104;-59
2021/11/13 08:22:36;;;;;;;18.85;15.10;;;;;;;;;;5036748;28;20040;-59
2021/11/13 08:25:02;;;;;;;21.40;13.40;;;;;;;;;;5036623;28;20028;-59
2021/11/13 08:27:28;;;;;;;10.30;8.48;;;;;;;;;;5035737;28;20017;-59
2021/11/13 08:29:53;;;;;;;7.20;5.30;;;;;;;;;;5035865;28;20358;-59
2021/11/13 08:32:18;;;;;;;7.43;5.10;;;;;;;;;;5040632;28;20500;-59
2021/11/13 08:34:44;;;;;;;12.50;4.78;;;;;;;;;;5039338;28;20082;-59
2021/11/13 08:37:09;;;;;;;7.05;3.47;;;;;;;;;;5041223;28;20013;-59
2021/11/13 08:39:35;;;;;;;10.50;5.43;;;;;;;;;;5040156;28;20032;-59
2021/11/13 08:42:08;;;;;;;11.40;5.82;;;;;;;;;;5041845;28;20464;-59
2021/11/13 08:44:33;;;;;;;23.48;6.15;;;;;;;;;;5041441;28;20085;-59
2021/11/13 08:46:59;;;;;;;9.70;4.47;;;;;;;;;;5038013;28;20025;-59
2021/11/13 08:49:24;;;;;;;10.27;5.25;;;;;;;;;;5039046;28;20586;-59
2021/11/13 08:51:49;;;;;;;9.70;4.43;;;;;;;;;;5038730;28;20033;-59
2021/11/13 08:54:15;;;;;;;11.75;5.75;;;;;;;;;;5035595;28;20024;-59
2021/11/13 08:56:40;;;;;;;18.65;9.63;;;;;;;;;;5037800;28;20052;-59
2021/11/13 08:59:05;;;;;;;9.18;6.35;;;;;;;;;;5037518;28;20368;-59
2021/11/13 09:01:31;;;;;;;7.38;4.70;;;;;;;;;;5034588;28;20108;-59
2021/11/13 09:03:56;;;;;;;12.38;5.60;;;;;;;;;;5037709;28;20518;-58
2021/11/13 09:06:23;;;;;;;11.68;5.47;;;;;;;;;;5035266;28;20120;-59
2021/11/13 09:08:50;;;;;;;7.55;3.50;;;;;;;;;;5033827;28;20024;-59
2021/11/13 09:11:17;;;;;;;6.57;3.30;;;;;;;;;;5038450;28;20055;-59
2021/11/13 09:13:44;;;;;;;6.90;3.28;;;;;;;;;;5038441;28;20009;-59
2021/11/13 09:16:11;;;;;;;9.25;4.13;;;;;;;;;;5039165;28;20374;-59
2021/11/13 09:18:38;;;;;;;9.30;3.65;;;;;;;;;;5038835;28;20060;-58
2021/11/13 09:21:04;;;;;;;10.60;2.90;;;;;;;;;;5036569;28;20086;-58
2021/11/13 09:23:30;;;;;;;6.82;3.85;;;;;;;;;;5038341;28;20524;-58
2021/11/13 09:25:55;;;;;;;14.05;4.93;;;;;;;;;;5040787;28;20508;-58
2021/11/13 09:28:21;;;;;;;12.80;3.28;;;;;;;;;;5037077;28;20037;-58
2021/11/13 09:30:46;;;;;;;12.88;6.07;;;;;;;;;;5037386;28;20079;-58
2021/11/13 09:33:13;;;;;;;18.52;3.95;;;;;;;;;;5036688;28;20020;-58
2021/11/13 09:35:39;;;;;;;4.70;3.42;;;;;;;;;;5035865;28;20077;-58
2021/11/13 09:38:04;;;;;;;13.32;2.97;;;;;;;;;;5038870;28;20020;-59
2021/11/13 09:40:30;;;;;;;13.68;4.28;;;;;;;;;;5037868;28;20028;-58
2021/11/13 09:42:56;;;;;;;7.47;4.05;;;;;;;;;;5037971;28;20040;-59
2021/11/13 09:45:24;;;;;;;10.65;4.65;;;;;;;;;;5037447;28;20029;-59
2021/11/13 09:47:51;;;;;;;8.77;4.07;;;;;;;;;;5039277;28;20028;-59
2021/11/13 09:50:17;;;;;;;11.43;2.92;;;;;;;;;;5036511;28;20049;-59
2021/11/13 09:52:43;;;;;;;12.48;4.15;;;;;;;;;;5035908;28;20025;-57
2021/11/13 09:55:09;;;;;;;13.10;4.43;;;;;;;;;;5037267;28;20036;-54
2021/11/13 09:57:37;;;;;;;8.82;2.88;;;;;;;;;;5037383;28;20020;-54
2021/11/13 10:00:04;;;;;;;8.88;4.60;;;;;;;;;;5033764;28;20649;-55
2021/11/13 10:02:29;;;;;;;18.23;7.72;;;;;;;;;;5034658;28;20032;-55
2021/11/13 10:04:54;;;;;;;12.63;8.45;;;;;;;;;;5034477;28;20025;-54
2021/11/13 10:07:20;;;;;;;9.75;5.95;;;;;;;;;;5036669;28;20116;-53
2021/11/13 10:09:48;;;;;;;10.23;6.05;;;;;;;;;;5036059;28;20477;-54
2021/11/13 10:12:13;;;;;;;21.08;6.78;;;;;;;;;;5037743;28;20021;-54
2021/11/13 10:14:40;;;;;;;10.15;3.30;;;;;;;;;;5036557;28;20083;-54
2021/11/13 10:17:24;;;;;;;2.83;2.22;;;;;;;;;;5035575;28;20052;-55
2021/11/13 10:19:51;;;;;;;8.43;2.83;;;;;;;;;;5034629;28;20028;-54
2021/11/13 10:22:16;;;;;;;5.38;3.95;;;;;;;;;;5036941;28;20037;-53
2021/11/13 10:24:43;;;;;;;10.63;3.78;;;;;;;;;;5035325;28;20100;-53
2021/11/13 10:27:10;;;;;;;3.92;3.13;;;;;;;;;;5035848;28;20030;-53
2021/11/13 10:29:36;;;;;;;5.80;2.67;;;;;;;;;;5033383;28;20141;-51
2021/11/13 10:32:13;;;;;;;6.68;3.20;;;;;;;;;;5036489;28;20025;-53
2021/11/13 10:34:41;;;;;;;16.38;14.77;;;;;;;;;;5038151;28;20010;-52
2021/11/13 10:37:11;;;;;;;7.47;4.47;;;;;;;;;;5036385;28;20013;-52
2021/11/13 10:39:38;;;;;;;9.85;3.03;;;;;;;;;;5036899;28;20032;-54
2021/11/13 10:42:08;;;;;;;10.13;3.03;;;;;;;;;;5037214;28;20029;-55
2021/11/13 10:44:33;;;;;;;13.93;4.60;;;;;;;;;;5035872;28;20076;-52
2021/11/13 10:47:07;;;;;;;16.52;5.55;;;;;;;;;;5035888;28;20025;-53
2021/11/13 10:49:32;;;;;;;7.13;4.32;;;;;;;;;;5035917;28;20222;-55
2021/11/13 10:52:00;;;;;;;8.25;3.97;;;;;;;;;;5036802;28;20100;-53
2021/11/13 10:54:25;;;;;;;9.88;4.15;;;;;;;;;;5039463;28;20013;-54
2021/11/13 10:56:54;;;;;;;7.22;3.55;;;;;;;;;;5037566;28;20043;-50
2021/11/13 10:59:26;;;;;;;6.78;4.00;;;;;;;;;;5040083;28;20119;-53
2021/11/13 11:01:56;;;;;;;13.18;3.55;;;;;;;;;;5039234;28;20013;-52
2021/11/13 11:04:22;;;;;;;7.95;3.42;;;;;;;;;;5036767;28;20107;-54
2021/11/13 11:06:49;;;;;;;24.00;12.25;;;;;;;;;;5040284;28;20020;-52
2021/11/13 11:09:20;;;;;;;9.57;7.50;;;;;;;;;;5039666;28;20389;-52
2021/11/13 11:11:45;;;;;;;5.10;1.50;;;;;;;;;;5038703;28;20020;-51
2021/11/13 11:14:13;;;;;;;6.50;3.00;;;;;;;;;;5039774;28;20021;-53
2021/11/13 11:16:39;;;;;;;6.63;2.47;;;;;;;;;;5038845;28;20156;-54
2021/11/13 11:19:06;;;;;;;4.97;1.50;;;;;;;;;;5041587;28;20021;-51
2021/11/13 11:21:40;;;;;;;5.30;1.25;;;;;;;;;;5037379;28;20036;-48
2021/11/13 11:24:26;;;;;;;12.10;7.97;;;;;;;;;;5037591;28;20017;-53
2021/11/13 11:27:11;;;;;;;7.80;1.88;;;;;;;;;;5037880;28;20021;-54
2021/11/13 11:29:51;;;;;;;4.25;2.35;;;;;;;;;;5034896;28;20026;-52
2021/11/13 11:32:20;;;;;;;10.32;2.25;;;;;;;;;;5032533;28;20496;-53
2021/11/13 11:34:45;;;;;;;11.77;1.38;;;;;;;;;;5039084;28;20040;-48
2021/11/13 11:37:22;;;;;;;0.77;0.47;;;;;;;;;;5033910;28;20056;-53
2021/11/13 11:39:49;;;;;;;3.25;1.10;;;;;;;;;;5037568;28;20021;-50
2021/11/13 11:42:14;;;;;;;4.22;1.30;;;;;;;;;;5037861;28;20025;-52
2021/11/13 11:44:40;;;;;;;1.65;0.93;;;;;;;;;;5033996;28;20548;-54
2021/11/13 11:47:10;;;;;;;3.33;1.42;;;;;;;;;;5034045;28;20039;-49
2021/11/13 11:49:37;;;;;;;2.17;1.17;;;;;;;;;;5038049;28;20540;-49
2021/11/13 11:52:02;;;;;;;6.00;1.45;;;;;;;;;;5038318;28;20045;-51
2021/11/13 11:54:29;;;;;;;1.60;1.13;;;;;;;;;;5037454;28;20025;-50
2021/11/13 11:56:55;;;;;;;1.73;1.10;;;;;;;;;;5037698;28;20029;-53
2021/11/13 11:59:21;;;;;;;8.43;2.38;;;;;;;;;;5040492;28;20815;-51
2021/11/13 12:01:46;;;;;;;4.43;2.25;;;;;;;;;;5038553;28;20551;-51
2021/11/13 12:04:15;;;;;;;1.50;0.98;;;;;;;;;;5042263;28;20021;-54
2021/11/13 12:06:51;;;;;;;3.92;1.88;;;;;;;;;;5041816;28;20021;-50
2021/11/13 12:09:16;;;;;;;5.05;2.40;;;;;;;;;;5037601;28;20063;-50
2021/11/13 12:11:44;;;;;;;4.40;2.20;;;;;;;;;;5037006;28;20025;-51
2021/11/13 12:14:23;;;;;;;5.88;3.20;;;;;;;;;;5037672;28;20017;-50
2021/11/13 12:16:49;;;;;;;13.75;9.73;;;;;;;;;;5038129;28;20370;-49
2021/11/13 12:19:15;;;;;;;9.75;7.78;;;;;;;;;;5036239;28;20036;-49
2021/11/13 12:21:50;;;;;;;10.80;6.78;;;;;;;;;;5035771;28;20029;-52
2021/11/13 12:24:16;;;;;;;9.95;5.15;;;;;;;;;;5036548;28;20104;-52
2021/11/13 12:26:44;;;;;;;6.93;4.07;;;;;;;;;;5038076;28;20124;-54
2021/11/13 12:29:13;;;;;;;14.05;5.30;;;;;;;;;;5031500;28;20583;-49
2021/11/13 12:31:38;;;;;;;8.93;5.15;;;;;;;;;;5037890;28;20025;-53
2021/11/13 12:34:14;;;;;;;20.63;6.22;;;;;;;;;;5036824;28;20708;-54
2021/11/13 12:36:54;;;;;;;11.18;5.10;;;;;;;;;;5038460;28;20144;-52
2021/11/13 12:39:20;;;;;;;10.43;4.05;;;;;;;;;;5033618;28;20035;-50
2021/11/13 12:41:49;;;;;;;11.48;7.97;;;;;;;;;;5037899;28;20021;-51
2021/11/13 12:44:34;;;;;;;10.15;7.85;;;;;;;;;;5033007;28;20021;-53
2021/11/13 12:47:05;;;;;;;10.05;7.63;;;;;;;;;;5026521;28;20039;-51
2021/11/13 12:49:35;;;;;;;10.90;5.65;;;;;;;;;;5035940;28;20073;-52
2021/11/13 12:52:01;;;;;;;15.70;9.95;;;;;;;;;;5040647;28;20174;-51
2021/11/13 12:54:35;;;;;;;20.77;14.43;;;;;;;;;;5034692;28;20135;-50
2021/11/13 12:57:06;;;;;;;19.42;13.07;;;;;;;;;;5036069;28;20029;-51
2021/11/13 12:59:33;;;;;;;13.52;6.38;;;;;;;;;;5037468;28;20022;-51
2021/11/13 13:02:00;;;;;;;17.67;7.18;;;;;;;;;;5032574;28;20037;-54
2021/11/13 13:04:30;;;;;;;26.23;21.90;;;;;;;;;;5035663;28;20028;-53
2021/11/13 13:06:55;;;;;;;22.65;17.00;;;;;;;;;;5037562;28;20031;-52
2021/11/13 13:09:22;;;;;;;16.08;11.93;;;;;;;;;;5039539;28;20033;-53
2021/11/13 13:12:01;;;;;;;12.32;10.23;;;;;;;;;;5034714;28;20393;-55
2021/11/13 13:14:30;;;;;;;14.57;12.90;;;;;;;;;;5038735;28;20017;-53
2021/11/13 13:16:57;;;;;;;22.92;16.58;;;;;;;;;;5038891;28;20017;-48
2021/11/13 13:19:29;;;;;;;19.40;10.25;;;;;;;;;;5035307;28;20036;-50
2021/11/13 13:21:54;;;;;;;9.27;7.97;;;;;;;;;;5030653;28;20024;-51
2021/11/13 13:24:21;;;;;;;11.27;8.75;;;;;;;;;;5035254;28;20234;-50
2021/11/13 13:26:47;;;;;;;12.43;9.40;;;;;;;;;;5033128;28;20503;-48
2021/11/13 13:29:14;;;;;;;13.00;10.05;;;;;;;;;;5033805;28;20033;-50
2021/11/13 13:31:39;;;;;;;27.70;20.70;;;;;;;;;;5036718;28;20013;-52
2021/11/13 13:34:05;;;;;;;28.92;22.20;;;;;;;;;;5039035;28;20549;-52
2021/11/13 13:36:30;;;;;;;26.65;23.67;;;;;;;;;;5038466;28;20025;-54
2021/11/13 13:38:57;;;;;;;24.00;19.27;;;;;;;;;;5038485;28;20025;-48
2021/11/13 13:41:22;;;;;;;19.67;15.35;;;;;;;;;;5037420;28;20133;-53
2021/11/13 13:43:50;;;;;;;23.52;12.52;;;;;;;;;;5038668;28;20113;-54
2021/11/13 13:46:17;;;;;;;20.73;15.90;;;;;;;;;;5035973;28;20713;-54
2021/11/13 13:48:47;;;;;;;24.02;19.42;;;;;;;;;;5035933;28;20276;-53
2021/11/13 13:51:17;;;;;;;21.00;15.50;;;;;;;;;;5034943;28;20049;-51
2021/11/13 13:53:44;;;;;;;14.82;11.75;;;;;;;;;;5035107;28;20247;-50
2021/11/13 13:56:30;;;;;;;10.70;9.70;;;;;;;;;;5036231;28;20025;-49
2021/11/13 13:58:56;;;;;;;12.10;9.38;;;;;;;;;;5037158;28;20034;-51
2021/11/13 14:01:22;;;;;;;16.10;7.82;;;;;;;;;;5033721;28;20025;-49
2021/11/13 14:03:48;;;;;;;18.70;13.50;;;;;;;;;;5036977;28;20063;-52
2021/11/13 14:06:13;;;;;;;14.40;13.00;;;;;;;;;;5037082;28;20724;-53
2021/11/13 14:08:46;;;;;;;15.57;10.82;;;;;;;;;;5035844;28;20105;-54
2021/11/13 14:11:11;;;;;;;10.88;7.35;;;;;;;;;;5039686;28;20062;-53
2021/11/13 14:13:37;;;;;;;10.20;8.52;;;;;;;;;;5038237;28;20025;-50
2021/11/13 14:16:04;;;;;;;11.80;9.35;;;;;;;;;;5034934;28;20041;-52
2021/11/13 14:18:31;;;;;;;8.68;7.20;;;;;;;;;;5037177;28;20017;-52
2021/11/13 14:20:56;;;;;;;8.43;7.57;;;;;;;;;;5036182;28;20022;-53
2021/11/13 14:23:24;;;;;;;15.02;11.00;;;;;;;;;;5036669;28;20029;-47
2021/11/13 14:25:54;;;;;;;26.30;18.55;;;;;;;;;;5034968;28;20530;-48
2021/11/13 14:28:32;;;;;;;32.20;28.90;;;;;;;;;;5032857;28;20457;-46
2021/11/13 14:30:59;;;;;;;44.97;36.63;;;;;;;;;;5034636;28;20017;-51
2021/11/13 14:33:24;;;;;;;26.73;23.52;;;;;;;;;;5035830;28;20511;-45